createdAt,value
2023-08-06T00:00:09.477Z,93972.00
2023-08-06T00:01:09.571Z,93970.00
2023-08-06T00:02:09.548Z,93970.00
2023-08-06T00:03:09.732Z,93968.00
2023-08-06T00:04:09.642Z,93968.00
2023-08-06T00:05:09.717Z,93968.00
2023-08-06T00:06:09.740Z,93968.00
2023-08-06T00:07:09.791Z,93970.00
2023-08-06T00:08:09.859Z,93970.00
2023-08-06T00:09:09.943Z,93970.00
2023-08-06T00:10:10.273Z,93970.00
2023-08-06T00:11:09.977Z,93972.00
2023-08-06T00:12:10.041Z,93972.00
2023-08-06T00:13:10.079Z,93970.00
2023-08-06T00:14:10.159Z,93972.00
2023-08-06T00:15:10.213Z,93974.00
2023-08-06T00:16:10.258Z,93974.00
2023-08-06T00:17:10.341Z,93974.00
2023-08-06T00:18:10.330Z,93974.00
2023-08-06T00:19:10.390Z,93976.00
2023-08-06T00:20:10.457Z,93974.00
2023-08-06T00:21:10.477Z,93974.00
2023-08-06T00:22:10.548Z,93976.00
2023-08-06T00:23:10.647Z,93970.00
2023-08-06T00:24:10.646Z,93974.00
2023-08-06T00:25:10.680Z,93970.00
2023-08-06T00:26:10.724Z,93972.00
2023-08-06T00:27:10.781Z,93968.00
2023-08-06T00:28:10.825Z,93968.00
2023-08-06T00:29:10.887Z,93967.00
2023-08-06T00:30:10.901Z,93967.00
2023-08-06T00:31:10.971Z,93963.00
2023-08-06T00:32:10.980Z,93961.00
2023-08-06T00:33:11.053Z,93959.00
2023-08-06T00:34:11.064Z,93959.00
2023-08-06T00:35:11.125Z,93959.00
2023-08-06T00:36:11.122Z,93957.00
2023-08-06T00:37:11.163Z,93959.00
2023-08-06T00:38:11.217Z,93959.00
2023-08-06T00:39:11.295Z,93959.00
2023-08-06T00:40:11.319Z,93961.00
2023-08-06T00:41:11.370Z,93959.00
2023-08-06T00:42:11.431Z,93959.00
2023-08-06T00:43:11.522Z,93961.00
2023-08-06T00:44:11.533Z,93961.00
2023-08-06T00:45:11.605Z,93959.00
2023-08-06T00:46:11.650Z,93957.00
2023-08-06T00:47:11.679Z,93955.00
2023-08-06T00:48:11.739Z,93961.00
2023-08-06T00:49:11.787Z,93961.00
2023-08-06T00:50:12.300Z,93967.00
2023-08-06T00:51:11.882Z,93967.00
2023-08-06T00:52:11.926Z,93963.00
2023-08-06T00:53:11.977Z,93963.00
2023-08-06T00:54:12.029Z,93961.00
2023-08-06T00:55:12.096Z,93961.00
2023-08-06T00:56:12.101Z,93963.00
2023-08-06T00:57:12.190Z,93959.00
2023-08-06T00:58:12.240Z,93957.00
2023-08-06T00:59:12.317Z,93959.00
2023-08-06T01:00:12.365Z,93957.00
2023-08-06T01:01:12.394Z,93955.00
2023-08-06T01:02:12.414Z,93955.00
2023-08-06T01:03:12.493Z,93953.00
2023-08-06T01:04:12.535Z,93953.00
2023-08-06T01:05:12.551Z,93955.00
2023-08-06T01:06:12.618Z,93955.00
2023-08-06T01:07:12.651Z,93955.00
2023-08-06T01:08:12.709Z,93953.00
2023-08-06T01:09:12.741Z,93953.00
2023-08-06T01:10:12.816Z,93953.00
2023-08-06T01:11:12.868Z,93953.00
2023-08-06T01:12:12.889Z,93955.00
2023-08-06T01:13:12.953Z,93955.00
2023-08-06T01:14:13.008Z,93955.00
2023-08-06T01:15:13.048Z,93957.00
2023-08-06T01:16:13.136Z,93955.00
2023-08-06T01:17:13.150Z,93953.00
2023-08-06T01:18:13.205Z,93955.00
2023-08-06T01:19:13.246Z,93953.00
2023-08-06T01:20:13.306Z,93953.00
2023-08-06T01:21:13.349Z,93951.00
2023-08-06T01:22:13.417Z,93951.00
2023-08-06T01:23:13.461Z,93953.00
2023-08-06T01:24:13.522Z,93949.00
2023-08-06T01:25:13.539Z,93951.00
2023-08-06T01:26:13.611Z,93955.00
2023-08-06T01:27:13.756Z,93953.00
2023-08-06T01:28:13.713Z,93957.00
2023-08-06T01:29:13.785Z,93957.00
2023-08-06T01:30:13.827Z,93955.00
2023-08-06T01:31:13.882Z,93953.00
2023-08-06T01:32:13.937Z,93957.00
2023-08-06T01:33:14.037Z,93959.00
2023-08-06T01:34:14.016Z,93957.00
2023-08-06T01:35:14.086Z,93961.00
2023-08-06T01:36:14.129Z,93961.00
2023-08-06T01:37:14.184Z,93961.00
2023-08-06T01:38:14.238Z,93961.00
2023-08-06T01:39:14.294Z,93965.00
2023-08-06T01:40:14.342Z,93961.00
2023-08-06T01:41:14.428Z,93961.00
2023-08-06T01:42:14.434Z,93961.00
2023-08-06T01:43:14.505Z,93961.00
2023-08-06T01:44:14.553Z,93963.00
2023-08-06T01:45:14.640Z,93965.00
2023-08-06T01:46:14.712Z,93965.00
2023-08-06T01:47:14.704Z,93965.00
2023-08-06T01:48:14.804Z,93965.00
2023-08-06T01:49:14.802Z,93967.00
2023-08-06T01:50:14.878Z,93963.00
2023-08-06T01:51:14.912Z,93963.00
2023-08-06T01:52:14.964Z,93961.00
2023-08-06T01:53:14.980Z,93959.00
2023-08-06T01:54:15.065Z,93961.00
2023-08-06T01:55:15.085Z,93963.00
2023-08-06T01:56:15.421Z,93963.00
2023-08-06T01:57:15.214Z,93963.00
2023-08-06T01:58:15.242Z,93965.00
2023-08-06T01:59:15.297Z,93965.00
2023-08-06T02:00:15.331Z,93967.00
2023-08-06T02:01:15.411Z,93968.00
2023-08-06T02:02:15.452Z,93968.00
2023-08-06T02:03:15.491Z,93967.00
2023-08-06T02:04:15.528Z,93967.00
2023-08-06T02:05:15.597Z,93968.00
2023-08-06T02:06:15.650Z,93965.00
2023-08-06T02:07:15.755Z,93965.00
2023-08-06T02:08:15.747Z,93961.00
2023-08-06T02:09:15.769Z,93959.00
2023-08-06T02:10:15.838Z,93957.00
2023-08-06T02:11:15.912Z,93957.00
2023-08-06T02:12:15.925Z,93955.00
2023-08-06T02:13:16.011Z,93949.00
2023-08-06T02:14:16.008Z,93951.00
2023-08-06T02:15:16.064Z,93947.00
2023-08-06T02:16:16.095Z,93947.00
2023-08-06T02:17:16.159Z,93941.00
2023-08-06T02:18:16.205Z,93935.00
2023-08-06T02:19:16.224Z,93929.00
2023-08-06T02:20:16.277Z,93925.00
2023-08-06T02:21:16.354Z,93927.00
2023-08-06T02:22:16.359Z,93925.00
2023-08-06T02:23:16.415Z,93923.00
2023-08-06T02:24:16.457Z,93921.00
2023-08-06T02:25:16.541Z,93916.00
2023-08-06T02:26:16.547Z,93916.00
2023-08-06T02:27:16.625Z,93916.00
2023-08-06T02:28:16.694Z,93914.00
2023-08-06T02:29:16.714Z,93914.00
2023-08-06T02:30:16.818Z,93914.00
2023-08-06T02:31:16.863Z,93912.00
2023-08-06T02:32:16.908Z,93914.00
2023-08-06T02:33:16.932Z,93914.00
2023-08-06T02:34:17.013Z,93914.00
2023-08-06T02:35:17.041Z,93914.00
2023-08-06T02:36:17.075Z,93918.00
2023-08-06T02:37:17.114Z,93916.00
2023-08-06T02:38:17.203Z,93916.00
2023-08-06T02:39:17.215Z,93916.00
2023-08-06T02:40:17.278Z,93920.00
2023-08-06T02:41:17.351Z,93918.00
2023-08-06T02:42:17.410Z,93914.00
2023-08-06T02:43:17.436Z,93914.00
2023-08-06T02:44:17.548Z,93912.00
2023-08-06T02:45:17.586Z,93914.00
2023-08-06T02:46:17.581Z,93912.00
2023-08-06T02:47:17.648Z,93910.00
2023-08-06T02:48:17.692Z,93908.00
2023-08-06T02:49:17.746Z,93908.00
2023-08-06T02:50:17.825Z,93906.00
2023-08-06T02:51:17.828Z,93902.00
2023-08-06T02:52:17.873Z,93898.00
2023-08-06T02:53:17.916Z,93898.00
2023-08-06T02:54:17.961Z,93894.00
2023-08-06T02:55:17.972Z,93888.00
2023-08-06T02:56:18.109Z,93890.00
2023-08-06T02:57:18.107Z,93888.00
2023-08-06T02:58:18.115Z,93890.00
2023-08-06T02:59:18.133Z,93886.00
2023-08-06T03:00:18.164Z,93888.00
2023-08-06T03:01:18.250Z,93888.00
2023-08-06T03:02:18.251Z,93890.00
2023-08-06T03:03:18.321Z,93888.00
2023-08-06T03:04:18.362Z,93888.00
2023-08-06T03:05:18.371Z,93886.00
2023-08-06T03:06:18.444Z,93884.00
2023-08-06T03:07:18.436Z,93884.00
2023-08-06T03:08:18.524Z,93880.00
2023-08-06T03:09:18.554Z,93880.00
2023-08-06T03:10:18.559Z,93878.00
2023-08-06T03:11:18.620Z,93878.00
2023-08-06T03:12:18.641Z,93878.00
2023-08-06T03:13:18.716Z,93880.00
2023-08-06T03:14:18.752Z,93880.00
2023-08-06T03:15:18.815Z,93880.00
2023-08-06T03:16:18.949Z,93880.00
2023-08-06T03:17:18.900Z,93878.00
2023-08-06T03:18:18.963Z,93876.00
2023-08-06T03:19:18.968Z,93876.00
2023-08-06T03:20:19.046Z,93878.00
2023-08-06T03:21:19.066Z,93876.00
2023-08-06T03:22:19.110Z,93874.00
2023-08-06T03:23:19.176Z,93874.00
2023-08-06T03:24:19.223Z,93867.00
2023-08-06T03:25:19.249Z,93867.00
2023-08-06T03:26:19.309Z,93867.00
2023-08-06T03:27:19.330Z,93867.00
2023-08-06T03:28:19.363Z,93867.00
2023-08-06T03:29:19.456Z,93867.00
2023-08-06T03:30:19.443Z,93867.00
2023-08-06T03:31:19.499Z,93865.00
2023-08-06T03:32:19.528Z,93874.00
2023-08-06T03:33:19.552Z,93874.00
2023-08-06T03:34:19.587Z,93874.00
2023-08-06T03:35:19.639Z,93874.00
2023-08-06T03:36:19.658Z,93878.00
2023-08-06T03:37:19.685Z,93876.00
2023-08-06T03:38:19.715Z,93876.00
2023-08-06T03:39:19.766Z,93878.00
2023-08-06T03:40:19.790Z,93880.00
2023-08-06T03:41:19.812Z,93882.00
2023-08-06T03:42:19.895Z,93884.00
2023-08-06T03:43:20.369Z,93884.00
2023-08-06T03:44:19.910Z,93884.00
2023-08-06T03:45:19.941Z,93886.00
2023-08-06T03:46:19.916Z,93886.00
2023-08-06T03:47:19.964Z,93890.00
2023-08-06T03:48:19.961Z,93890.00
2023-08-06T03:49:19.976Z,93892.00
2023-08-06T03:50:20.021Z,93894.00
2023-08-06T03:51:20.059Z,93896.00
2023-08-06T03:52:20.114Z,93898.00
2023-08-06T03:53:20.087Z,93898.00
2023-08-06T03:54:20.062Z,93898.00
2023-08-06T03:55:20.085Z,93898.00
2023-08-06T03:56:20.091Z,93894.00
2023-08-06T03:57:20.140Z,93896.00
2023-08-06T03:58:20.147Z,93894.00
2023-08-06T03:59:20.178Z,93894.00
2023-08-06T04:00:20.192Z,93894.00
2023-08-06T04:01:20.280Z,93890.00
2023-08-06T04:02:20.207Z,93892.00
2023-08-06T04:03:20.341Z,93894.00
2023-08-06T04:04:20.238Z,93890.00
2023-08-06T04:05:20.252Z,93886.00
2023-08-06T04:06:20.294Z,93886.00
2023-08-06T04:07:20.318Z,93886.00
2023-08-06T04:08:20.379Z,93884.00
2023-08-06T04:09:20.388Z,93878.00
2023-08-06T04:10:20.398Z,93882.00
2023-08-06T04:11:20.453Z,93880.00
2023-08-06T04:12:22.839Z,93880.00
2023-08-06T04:13:20.652Z,93876.00
2023-08-06T04:14:20.700Z,93878.00
2023-08-06T04:15:20.733Z,93878.00
2023-08-06T04:16:20.842Z,93876.00
2023-08-06T04:17:20.787Z,93874.00
2023-08-06T04:18:20.798Z,93874.00
2023-08-06T04:19:20.819Z,93874.00
2023-08-06T04:20:20.830Z,93865.00
2023-08-06T04:21:20.871Z,93859.00
2023-08-06T04:22:20.908Z,93859.00
2023-08-06T04:23:20.906Z,93865.00
2023-08-06T04:24:20.952Z,93863.00
2023-08-06T04:25:20.943Z,93861.00
2023-08-06T04:26:20.966Z,93861.00
2023-08-06T04:27:20.993Z,93863.00
2023-08-06T04:28:21.045Z,93857.00
2023-08-06T04:29:21.054Z,93861.00
2023-08-06T04:30:21.095Z,93861.00
2023-08-06T04:31:21.100Z,93861.00
2023-08-06T04:32:21.127Z,93857.00
2023-08-06T04:33:21.117Z,93855.00
2023-08-06T04:34:21.137Z,93853.00
2023-08-06T04:35:21.188Z,93861.00
2023-08-06T04:36:21.271Z,93861.00
2023-08-06T04:37:21.239Z,93861.00
2023-08-06T04:38:21.256Z,93857.00
2023-08-06T04:39:21.281Z,93861.00
2023-08-06T04:40:21.347Z,93859.00
2023-08-06T04:41:21.318Z,93855.00
2023-08-06T04:42:21.319Z,93857.00
2023-08-06T04:43:21.360Z,93855.00
2023-08-06T04:44:21.407Z,93861.00
2023-08-06T04:45:21.402Z,93863.00
2023-08-06T04:46:21.485Z,93861.00
2023-08-06T04:47:21.511Z,93861.00
2023-08-06T04:48:21.446Z,93861.00
2023-08-06T04:49:21.474Z,93861.00
2023-08-06T04:50:21.535Z,93861.00
2023-08-06T04:51:21.506Z,93861.00
2023-08-06T04:52:21.537Z,93859.00
2023-08-06T04:53:21.592Z,93859.00
2023-08-06T04:54:21.621Z,93859.00
2023-08-06T04:55:21.576Z,93863.00
2023-08-06T04:56:21.642Z,93863.00
2023-08-06T04:57:21.616Z,93863.00
2023-08-06T04:58:21.677Z,93865.00
2023-08-06T04:59:21.742Z,93867.00
2023-08-06T05:00:21.736Z,93863.00
2023-08-06T05:01:21.835Z,93865.00
2023-08-06T05:02:21.866Z,93863.00
2023-08-06T05:03:21.866Z,93863.00
2023-08-06T05:04:21.898Z,93863.00
2023-08-06T05:05:22.486Z,93865.00
2023-08-06T05:06:21.986Z,93861.00
2023-08-06T05:07:22.022Z,93865.00
2023-08-06T05:08:22.076Z,93874.00
2023-08-06T05:09:22.123Z,93867.00
2023-08-06T05:10:22.173Z,93867.00
2023-08-06T05:11:22.192Z,93876.00
2023-08-06T05:12:22.250Z,93874.00
2023-08-06T05:13:22.240Z,93874.00
2023-08-06T05:14:22.287Z,93867.00
2023-08-06T05:15:22.358Z,93865.00
2023-08-06T05:16:22.411Z,93865.00
2023-08-06T05:17:22.424Z,93867.00
2023-08-06T05:18:22.425Z,93876.00
2023-08-06T05:19:22.481Z,93876.00
2023-08-06T05:20:22.529Z,93876.00
2023-08-06T05:21:22.575Z,93874.00
2023-08-06T05:22:22.618Z,93880.00
2023-08-06T05:23:22.674Z,93884.00
2023-08-06T05:24:23.194Z,93886.00
2023-08-06T05:25:22.752Z,93882.00
2023-08-06T05:26:22.799Z,93880.00
2023-08-06T05:27:22.848Z,93884.00
2023-08-06T05:28:22.945Z,93888.00
2023-08-06T05:29:22.954Z,93888.00
2023-08-06T05:30:23.009Z,93884.00
2023-08-06T05:31:23.066Z,93880.00
2023-08-06T05:32:23.124Z,93880.00
2023-08-06T05:33:23.119Z,93878.00
2023-08-06T05:34:23.192Z,93876.00
2023-08-06T05:35:23.262Z,93876.00
2023-08-06T05:36:23.320Z,93874.00
2023-08-06T05:37:23.391Z,93876.00
2023-08-06T05:38:23.460Z,93865.00
2023-08-06T05:39:23.502Z,93867.00
2023-08-06T05:40:23.595Z,93865.00
2023-08-06T05:41:23.617Z,93865.00
2023-08-06T05:42:23.676Z,93863.00
2023-08-06T05:43:23.772Z,93861.00
2023-08-06T05:44:23.821Z,93861.00
2023-08-06T05:45:23.901Z,93859.00
2023-08-06T05:46:23.939Z,93857.00
2023-08-06T05:47:24.037Z,93857.00
2023-08-06T05:48:24.054Z,93859.00
2023-08-06T05:49:24.098Z,93859.00
2023-08-06T05:50:24.149Z,93857.00
2023-08-06T05:51:24.219Z,93859.00
2023-08-06T05:52:24.278Z,93861.00
2023-08-06T05:53:24.308Z,93861.00
2023-08-06T05:54:24.364Z,93859.00
2023-08-06T05:55:24.405Z,93861.00
2023-08-06T05:56:24.430Z,93859.00
2023-08-06T05:57:24.477Z,93859.00
2023-08-06T05:58:24.524Z,93853.00
2023-08-06T05:59:24.571Z,93855.00
2023-08-06T06:00:24.621Z,93851.00
2023-08-06T06:01:24.672Z,93845.00
2023-08-06T06:02:24.781Z,93847.00
2023-08-06T06:03:24.719Z,93847.00
2023-08-06T06:04:24.769Z,93847.00
2023-08-06T06:05:24.760Z,93847.00
2023-08-06T06:06:24.816Z,93849.00
2023-08-06T06:07:24.803Z,93849.00
2023-08-06T06:08:24.858Z,93845.00
2023-08-06T06:09:24.902Z,93845.00
2023-08-06T06:10:24.945Z,93847.00
2023-08-06T06:11:24.988Z,93847.00
2023-08-06T06:12:25.018Z,93843.00
2023-08-06T06:13:25.059Z,93843.00
2023-08-06T06:14:25.069Z,93843.00
2023-08-06T06:15:25.073Z,93841.00
2023-08-06T06:16:25.163Z,93843.00
2023-08-06T06:17:25.179Z,93841.00
2023-08-06T06:18:25.167Z,93843.00
2023-08-06T06:19:27.146Z,93845.00
2023-08-06T06:20:25.180Z,93845.00
2023-08-06T06:21:25.181Z,93845.00
2023-08-06T06:22:25.150Z,93847.00
2023-08-06T06:23:25.171Z,93845.00
2023-08-06T06:24:25.150Z,93847.00
2023-08-06T06:25:25.164Z,93847.00
2023-08-06T06:26:25.172Z,93851.00
2023-08-06T06:27:25.138Z,93849.00
2023-08-06T06:28:25.127Z,93849.00
2023-08-06T06:29:25.126Z,93849.00
2023-08-06T06:30:25.118Z,93847.00
2023-08-06T06:31:25.228Z,93849.00
2023-08-06T06:32:25.221Z,93847.00
2023-08-06T06:33:25.101Z,93845.00
2023-08-06T06:34:25.200Z,93843.00
2023-08-06T06:35:25.101Z,93843.00
2023-08-06T06:36:25.082Z,93845.00
2023-08-06T06:37:25.073Z,93843.00
2023-08-06T06:38:25.051Z,93841.00
2023-08-06T06:39:25.061Z,93839.00
2023-08-06T06:40:25.061Z,93841.00
2023-08-06T06:41:25.043Z,93843.00
2023-08-06T06:42:25.018Z,93845.00
2023-08-06T06:43:25.031Z,93843.00
2023-08-06T06:44:25.016Z,93843.00
2023-08-06T06:45:25.043Z,93843.00
2023-08-06T06:46:25.021Z,93845.00
2023-08-06T06:47:24.997Z,93843.00
2023-08-06T06:48:24.983Z,93843.00
2023-08-06T06:49:25.060Z,93841.00
2023-08-06T06:50:25.049Z,93841.00
2023-08-06T06:51:25.031Z,93837.00
2023-08-06T06:52:24.953Z,93839.00
2023-08-06T06:53:24.942Z,93837.00
2023-08-06T06:54:24.952Z,93835.00
2023-08-06T06:55:24.955Z,93833.00
2023-08-06T06:56:24.970Z,93831.00
2023-08-06T06:57:24.952Z,93833.00
2023-08-06T06:58:24.924Z,93831.00
2023-08-06T06:59:24.913Z,93833.00
2023-08-06T07:00:24.927Z,93833.00
2023-08-06T07:01:25.090Z,93831.00
2023-08-06T07:02:24.944Z,93828.00
2023-08-06T07:03:24.986Z,93829.00
2023-08-06T07:04:24.887Z,93828.00
2023-08-06T07:05:24.881Z,93828.00
2023-08-06T07:06:24.918Z,93828.00
2023-08-06T07:07:24.900Z,93829.00
2023-08-06T07:08:24.863Z,93829.00
2023-08-06T07:09:24.834Z,93826.00
2023-08-06T07:10:24.855Z,93824.00
2023-08-06T07:11:24.830Z,93822.00
2023-08-06T07:12:24.848Z,93820.00
2023-08-06T07:13:24.832Z,93816.00
2023-08-06T07:14:24.824Z,93818.00
2023-08-06T07:15:24.823Z,93816.00
2023-08-06T07:16:24.840Z,93814.00
2023-08-06T07:17:24.841Z,93812.00
2023-08-06T07:18:24.799Z,93812.00
2023-08-06T07:19:24.777Z,93810.00
2023-08-06T07:20:24.912Z,93808.00
2023-08-06T07:21:24.759Z,93806.00
2023-08-06T07:22:24.780Z,93800.00
2023-08-06T07:23:24.753Z,93800.00
2023-08-06T07:24:24.749Z,93800.00
2023-08-06T07:25:24.741Z,93796.00
2023-08-06T07:26:24.718Z,93794.00
2023-08-06T07:27:24.999Z,93798.00
2023-08-06T07:28:24.743Z,93798.00
2023-08-06T07:29:24.711Z,93796.00
2023-08-06T07:30:24.733Z,93796.00
2023-08-06T07:31:24.718Z,93792.00
2023-08-06T07:32:24.707Z,93790.00
2023-08-06T07:33:24.682Z,93792.00
2023-08-06T07:34:24.682Z,93790.00
2023-08-06T07:35:24.670Z,93790.00
2023-08-06T07:36:24.658Z,93790.00
2023-08-06T07:37:24.660Z,93790.00
2023-08-06T07:38:24.632Z,93788.00
2023-08-06T07:39:24.681Z,93784.00
2023-08-06T07:40:24.679Z,93786.00
2023-08-06T07:41:24.632Z,93782.00
2023-08-06T07:42:24.645Z,93784.00
2023-08-06T07:43:24.634Z,93784.00
2023-08-06T07:44:24.602Z,93788.00
2023-08-06T07:45:24.601Z,93788.00
2023-08-06T07:46:24.638Z,93788.00
2023-08-06T07:47:24.598Z,93788.00
2023-08-06T07:48:24.576Z,93790.00
2023-08-06T07:49:24.582Z,93788.00
2023-08-06T07:50:24.593Z,93788.00
2023-08-06T07:51:24.556Z,93790.00
2023-08-06T07:52:24.578Z,93790.00
2023-08-06T07:53:24.549Z,93790.00
2023-08-06T07:54:24.567Z,93788.00
2023-08-06T07:55:24.533Z,93786.00
2023-08-06T07:56:24.551Z,93788.00
2023-08-06T07:57:24.568Z,93790.00
2023-08-06T07:58:24.539Z,93790.00
2023-08-06T07:59:24.509Z,93792.00
2023-08-06T08:00:24.509Z,93792.00
2023-08-06T08:01:24.545Z,93792.00
2023-08-06T08:02:24.565Z,93794.00
2023-08-06T08:03:24.484Z,93798.00
2023-08-06T08:04:24.478Z,93800.00
2023-08-06T08:05:24.476Z,93802.00
2023-08-06T08:06:24.479Z,93804.00
2023-08-06T08:07:24.454Z,93806.00
2023-08-06T08:08:24.449Z,93806.00
2023-08-06T08:09:24.443Z,93800.00
2023-08-06T08:10:24.420Z,93802.00
2023-08-06T08:11:24.429Z,93804.00
2023-08-06T08:12:24.456Z,93804.00
2023-08-06T08:13:24.429Z,93806.00
2023-08-06T08:14:24.438Z,93806.00
2023-08-06T08:15:24.403Z,93810.00
2023-08-06T08:16:24.423Z,93810.00
2023-08-06T08:17:24.433Z,93814.00
2023-08-06T08:18:24.549Z,93814.00
2023-08-06T08:19:24.367Z,93816.00
2023-08-06T08:20:24.414Z,93816.00
2023-08-06T08:21:24.361Z,93816.00
2023-08-06T08:22:24.346Z,93818.00
2023-08-06T08:23:24.338Z,93820.00
2023-08-06T08:24:24.337Z,93822.00
2023-08-06T08:25:24.342Z,93824.00
2023-08-06T08:26:24.375Z,93829.00
2023-08-06T08:27:24.398Z,93831.00
2023-08-06T08:28:24.397Z,93835.00
2023-08-06T08:29:24.459Z,93837.00
2023-08-06T08:30:24.479Z,93839.00
2023-08-06T08:31:24.468Z,93841.00
2023-08-06T08:32:24.533Z,93839.00
2023-08-06T08:33:24.538Z,93841.00
2023-08-06T08:34:24.590Z,93839.00
2023-08-06T08:35:24.563Z,93839.00
2023-08-06T08:36:24.616Z,93837.00
2023-08-06T08:37:24.637Z,93839.00
2023-08-06T08:38:24.721Z,93843.00
2023-08-06T08:39:24.653Z,93845.00
2023-08-06T08:40:24.716Z,93845.00
2023-08-06T08:41:24.750Z,93847.00
2023-08-06T08:42:24.809Z,93845.00
2023-08-06T08:43:24.796Z,93843.00
2023-08-06T08:44:24.805Z,93845.00
2023-08-06T08:45:24.889Z,93845.00
2023-08-06T08:46:24.929Z,93841.00
2023-08-06T08:47:24.923Z,93843.00
2023-08-06T08:48:25.006Z,93841.00
2023-08-06T08:49:24.956Z,93841.00
2023-08-06T08:50:24.983Z,93843.00
2023-08-06T08:51:25.044Z,93847.00
2023-08-06T08:52:25.064Z,93849.00
2023-08-06T08:53:25.083Z,93851.00
2023-08-06T08:54:25.100Z,93853.00
2023-08-06T08:55:25.172Z,93853.00
2023-08-06T08:56:25.183Z,93851.00
2023-08-06T08:57:25.164Z,93851.00
2023-08-06T08:58:25.221Z,93855.00
2023-08-06T08:59:25.247Z,93855.00
2023-08-06T09:00:25.272Z,93855.00
2023-08-06T09:01:25.305Z,93857.00
2023-08-06T09:02:25.337Z,93857.00
2023-08-06T09:03:25.408Z,93859.00
2023-08-06T09:04:25.376Z,93859.00
2023-08-06T09:05:25.399Z,93863.00
2023-08-06T09:06:25.418Z,93861.00
2023-08-06T09:07:25.435Z,93861.00
2023-08-06T09:08:25.475Z,93861.00
2023-08-06T09:09:25.491Z,93863.00
2023-08-06T09:10:25.522Z,93865.00
2023-08-06T09:11:25.542Z,93867.00
2023-08-06T09:12:25.558Z,93874.00
2023-08-06T09:13:25.563Z,93876.00
2023-08-06T09:14:26.030Z,93874.00
2023-08-06T09:15:25.591Z,93876.00
2023-08-06T09:16:25.695Z,93878.00
2023-08-06T09:17:25.762Z,93880.00
2023-08-06T09:18:25.696Z,93876.00
2023-08-06T09:19:25.709Z,93880.00
2023-08-06T09:20:25.713Z,93878.00
2023-08-06T09:21:25.769Z,93882.00
2023-08-06T09:22:25.781Z,93878.00
2023-08-06T09:23:25.822Z,93884.00
2023-08-06T09:24:25.842Z,93886.00
2023-08-06T09:25:25.838Z,93888.00
2023-08-06T09:26:25.913Z,93886.00
2023-08-06T09:27:25.911Z,93888.00
2023-08-06T09:28:25.945Z,93890.00
2023-08-06T09:29:25.983Z,93890.00
2023-08-06T09:30:25.974Z,93892.00
2023-08-06T09:31:26.031Z,93892.00
2023-08-06T09:32:26.113Z,93894.00
2023-08-06T09:33:26.044Z,93888.00
2023-08-06T09:34:26.090Z,93892.00
2023-08-06T09:35:26.085Z,93892.00
2023-08-06T09:36:26.103Z,93892.00
2023-08-06T09:37:26.190Z,93890.00
2023-08-06T09:38:26.135Z,93896.00
2023-08-06T09:39:26.181Z,93894.00
2023-08-06T09:40:26.173Z,93896.00
2023-08-06T09:41:26.242Z,93896.00
2023-08-06T09:42:26.259Z,93896.00
2023-08-06T09:43:26.281Z,93890.00
2023-08-06T09:44:26.288Z,93886.00
2023-08-06T09:45:26.285Z,93882.00
2023-08-06T09:46:26.299Z,93880.00
2023-08-06T09:47:26.354Z,93878.00
2023-08-06T09:48:26.344Z,93867.00
2023-08-06T09:49:26.409Z,93863.00
2023-08-06T09:50:26.411Z,93861.00
2023-08-06T09:51:26.433Z,93859.00
2023-08-06T09:52:26.426Z,93851.00
2023-08-06T09:53:26.490Z,93855.00
2023-08-06T09:54:28.179Z,93851.00
2023-08-06T09:55:26.512Z,93849.00
2023-08-06T09:56:26.544Z,93851.00
2023-08-06T09:57:26.568Z,93841.00
2023-08-06T09:58:26.574Z,93839.00
2023-08-06T09:59:26.624Z,93837.00
2023-08-06T10:00:26.650Z,93839.00
2023-08-06T10:01:26.656Z,93837.00
2023-08-06T10:02:26.724Z,93837.00
2023-08-06T10:03:26.816Z,93835.00
2023-08-06T10:04:30.882Z,93837.00
2023-08-06T10:05:27.739Z,93839.00
2023-08-06T10:06:26.690Z,93839.00
2023-08-06T10:07:26.701Z,93837.00
2023-08-06T10:08:26.709Z,93837.00
2023-08-06T10:09:26.693Z,93833.00
2023-08-06T10:10:26.717Z,93833.00
2023-08-06T10:11:26.678Z,93829.00
2023-08-06T10:12:26.645Z,93829.00
2023-08-06T10:13:26.667Z,93829.00
2023-08-06T10:14:26.651Z,93826.00
2023-08-06T10:15:26.677Z,93826.00
2023-08-06T10:16:26.728Z,93822.00
2023-08-06T10:18:26.704Z,93824.00
2023-08-06T10:19:26.607Z,93828.00
2023-08-06T10:20:26.644Z,93829.00
2023-08-06T10:21:26.608Z,93829.00
2023-08-06T10:22:26.621Z,93824.00
2023-08-06T10:23:26.589Z,93822.00
2023-08-06T10:24:26.566Z,93824.00
2023-08-06T10:25:26.564Z,93828.00
2023-08-06T10:26:26.603Z,93824.00
2023-08-06T10:27:26.596Z,93826.00
2023-08-06T10:28:26.633Z,93826.00
2023-08-06T10:29:26.652Z,93824.00
2023-08-06T10:30:26.737Z,93820.00
2023-08-06T10:31:26.705Z,93818.00
2023-08-06T10:32:26.737Z,93816.00
2023-08-06T10:33:26.727Z,93814.00
2023-08-06T10:34:26.742Z,93816.00
2023-08-06T10:35:26.789Z,93810.00
2023-08-06T10:36:26.787Z,93814.00
2023-08-06T10:37:26.782Z,93812.00
2023-08-06T10:38:26.831Z,93812.00
2023-08-06T10:39:31.391Z,93808.00
2023-08-06T10:40:26.858Z,93812.00
2023-08-06T10:41:26.833Z,93814.00
2023-08-06T10:42:26.863Z,93812.00
2023-08-06T10:43:26.820Z,93814.00
2023-08-06T10:44:32.275Z,93812.00
2023-08-06T10:45:27.788Z,93816.00
2023-08-06T10:46:26.818Z,93816.00
2023-08-06T10:47:26.784Z,93814.00
2023-08-06T10:48:26.796Z,93814.00
2023-08-06T10:49:26.776Z,93818.00
2023-08-06T10:50:26.750Z,93816.00
2023-08-06T10:51:26.753Z,93816.00
2023-08-06T10:52:26.738Z,93820.00
2023-08-06T10:53:26.746Z,93812.00
2023-08-06T10:54:26.741Z,93818.00
2023-08-06T10:55:26.744Z,93818.00
2023-08-06T10:56:26.722Z,93818.00
2023-08-06T10:57:26.729Z,93820.00
2023-08-06T10:58:26.685Z,93820.00
2023-08-06T10:59:26.697Z,93822.00
2023-08-06T11:00:26.748Z,93820.00
2023-08-06T11:01:26.735Z,93820.00
2023-08-06T11:02:26.722Z,93822.00
2023-08-06T11:03:26.662Z,93818.00
2023-08-06T11:04:26.640Z,93824.00
2023-08-06T11:05:26.649Z,93822.00
2023-08-06T11:06:26.633Z,93816.00
2023-08-06T11:07:26.636Z,93820.00
2023-08-06T11:08:26.634Z,93824.00
2023-08-06T11:09:26.638Z,93826.00
2023-08-06T11:10:26.675Z,93828.00
2023-08-06T11:11:26.601Z,93833.00
2023-08-06T11:12:26.602Z,93835.00
2023-08-06T11:13:26.635Z,93843.00
2023-08-06T11:14:26.670Z,93845.00
2023-08-06T11:15:26.701Z,93843.00
2023-08-06T11:16:26.804Z,93843.00
2023-08-06T11:17:26.732Z,93845.00
2023-08-06T11:18:26.717Z,93847.00
2023-08-06T11:19:26.812Z,93849.00
2023-08-06T11:20:26.768Z,93843.00
2023-08-06T11:21:26.818Z,93845.00
2023-08-06T11:22:26.831Z,93851.00
2023-08-06T11:23:26.830Z,93845.00
2023-08-06T11:24:26.851Z,93849.00
2023-08-06T11:25:26.875Z,93847.00
2023-08-06T11:26:26.892Z,93845.00
2023-08-06T11:27:26.909Z,93849.00
2023-08-06T11:28:26.941Z,93853.00
2023-08-06T11:29:26.953Z,93857.00
2023-08-06T11:30:26.975Z,93855.00
2023-08-06T11:31:27.011Z,93859.00
2023-08-06T11:32:27.018Z,93859.00
2023-08-06T11:33:27.022Z,93859.00
2023-08-06T11:34:27.033Z,93861.00
2023-08-06T11:35:27.068Z,93867.00
2023-08-06T11:36:27.599Z,93861.00
2023-08-06T11:37:27.100Z,93867.00
2023-08-06T11:38:27.125Z,93876.00
2023-08-06T11:39:27.132Z,93884.00
2023-08-06T11:40:27.154Z,93892.00
2023-08-06T11:41:27.170Z,93890.00
2023-08-06T11:42:27.201Z,93894.00
2023-08-06T11:43:27.314Z,93892.00
2023-08-06T11:44:27.228Z,93898.00
2023-08-06T11:45:27.266Z,93892.00